createdAt,value
2018-06-10T00:00:31.065Z,63.35
2018-06-10T00:01:31.181Z,63.39
2018-06-10T00:02:31.057Z,63.35
2018-06-10T00:03:31.357Z,63.36
2018-06-10T00:04:31.075Z,63.36
2018-06-10T00:05:31.291Z,63.4
2018-06-10T00:06:30.958Z,63.37
2018-06-10T00:07:31.076Z,63.35
2018-06-10T00:08:31.162Z,63.41
2018-06-10T00:09:31.202Z,63.42
2018-06-10T00:10:31.251Z,63.38
2018-06-10T00:11:31.049Z,63.38
2018-06-10T00:12:31.365Z,63.38
2018-06-10T00:13:31.047Z,63.38
2018-06-10T00:14:31.037Z,63.37
2018-06-10T00:15:31.067Z,63.35
2018-06-10T00:16:31.257Z,63.35
2018-06-10T00:17:31.233Z,63.39
2018-06-10T00:18:31.174Z,63.35
2018-06-10T00:19:31.225Z,63.32
2018-06-10T00:20:31.320Z,63.42
2018-06-10T00:21:31.085Z,63.38
2018-06-10T00:22:31.051Z,63.33
2018-06-10T00:23:31.096Z,63.37
2018-06-10T00:24:52.875Z,63.34
2018-06-10T00:25:31.238Z,63.34
2018-06-10T00:26:31.044Z,63.35
2018-06-10T00:27:31.245Z,63.36
2018-06-10T00:28:31.157Z,63.35
2018-06-10T00:29:30.867Z,63.34
2018-06-10T00:30:31.200Z,63.36
2018-06-10T00:31:31.119Z,63.35
2018-06-10T00:32:31.002Z,63.35
2018-06-10T00:33:31.147Z,63.36
2018-06-10T00:34:31.293Z,63.35
2018-06-10T00:35:31.202Z,63.4
2018-06-10T00:36:31.152Z,63.34
2018-06-10T00:37:31.175Z,63.34
2018-06-10T00:38:31.023Z,63.37
2018-06-10T00:39:30.991Z,63.35
2018-06-10T00:40:31.137Z,63.35
2018-06-10T00:41:30.992Z,63.38
2018-06-10T00:42:31.042Z,63.36
2018-06-10T00:43:31.078Z,63.37
2018-06-10T00:44:31.228Z,63.38
2018-06-10T00:45:31.187Z,63.33
2018-06-10T00:46:31.022Z,63.33
2018-06-10T00:47:31.171Z,63.35
2018-06-10T00:48:30.934Z,63.36
2018-06-10T00:49:31.001Z,63.36
2018-06-10T00:50:31.084Z,63.32
2018-06-10T00:51:31.086Z,63.35
2018-06-10T00:52:30.976Z,63.36
2018-06-10T00:53:31.107Z,63.39
2018-06-10T00:54:31.158Z,63.36
2018-06-10T00:55:31.151Z,63.35
2018-06-10T00:56:31.201Z,63.38
2018-06-10T00:57:31.003Z,63.38
2018-06-10T00:58:31.357Z,63.33
2018-06-10T00:59:31.042Z,63.38
2018-06-10T01:00:31.195Z,63.36
2018-06-10T01:01:31.148Z,63.37
2018-06-10T01:02:31.025Z,63.35
2018-06-10T01:03:31.172Z,63.39
2018-06-10T01:04:31.048Z,63.34
2018-06-10T01:05:31.140Z,63.37
2018-06-10T01:06:30.925Z,63.37
2018-06-10T01:07:30.940Z,63.36
2018-06-10T01:08:31.128Z,63.41
2018-06-10T01:09:30.987Z,63.34
2018-06-10T01:10:31.027Z,63.34
2018-06-10T01:11:30.978Z,63.37
2018-06-10T01:12:31.337Z,63.39
2018-06-10T01:13:31.072Z,63.39
2018-06-10T01:14:31.299Z,63.39
2018-06-10T01:15:30.815Z,63.4
2018-06-10T01:16:30.985Z,63.39
2018-06-10T01:17:31.113Z,63.38
2018-06-10T01:18:31.084Z,63.4
2018-06-10T01:19:31.101Z,63.4
2018-06-10T01:20:31.153Z,63.37
2018-06-10T01:21:31.170Z,63.43
2018-06-10T01:22:31.046Z,63.35
2018-06-10T01:23:30.981Z,63.34
2018-06-10T01:24:31.040Z,63.41
2018-06-10T01:25:31.307Z,63.36
2018-06-10T01:26:31.058Z,63.37
2018-06-10T01:27:31.131Z,63.36
2018-06-10T01:28:31.109Z,63.4
2018-06-10T01:29:31.134Z,63.4
2018-06-10T01:30:30.951Z,63.38
2018-06-10T01:31:31.118Z,63.4
2018-06-10T01:32:31.043Z,63.39
2018-06-10T01:33:31.009Z,63.36
2018-06-10T01:34:31.165Z,63.44
2018-06-10T01:35:31.005Z,63.4
2018-06-10T01:36:31.121Z,63.43
2018-06-10T01:37:31.065Z,63.4
2018-06-10T01:38:31.175Z,63.38
2018-06-10T01:39:31.196Z,63.42
2018-06-10T01:40:31.191Z,63.38
2018-06-10T01:41:31.114Z,63.39
2018-06-10T01:42:30.892Z,63.37
2018-06-10T01:43:31.159Z,63.39
2018-06-10T01:44:31.011Z,63.38
2018-06-10T01:45:31.075Z,63.4
2018-06-10T01:46:30.966Z,63.41
2018-06-10T01:47:31.071Z,63.48
2018-06-10T01:48:31.023Z,63.44
2018-06-10T01:49:31.086Z,63.41
2018-06-10T01:50:30.983Z,63.4
2018-06-10T01:51:31.000Z,63.43
2018-06-10T01:52:30.960Z,63.4
2018-06-10T01:53:31.191Z,63.4
2018-06-10T01:54:31.256Z,63.38
2018-06-10T01:55:31.084Z,63.41
2018-06-10T01:56:31.051Z,63.38
2018-06-10T01:57:31.181Z,63.41
2018-06-10T01:58:30.957Z,63.39
2018-06-10T01:59:31.049Z,63.42
2018-06-10T02:00:41.001Z,63.38
2018-06-10T02:01:31.113Z,63.38
2018-06-10T02:02:30.960Z,63.36
2018-06-10T02:03:31.187Z,63.39
2018-06-10T02:04:31.313Z,63.38
2018-06-10T02:05:30.983Z,63.42
2018-06-10T02:06:31.124Z,63.4
2018-06-10T02:07:31.153Z,63.36
2018-06-10T02:08:31.190Z,63.39
2018-06-10T02:09:31.319Z,63.45
2018-06-10T02:10:31.038Z,63.42
2018-06-10T02:11:31.001Z,63.39
2018-06-10T02:12:31.123Z,63.41
2018-06-10T02:13:31.184Z,63.38
2018-06-10T02:14:30.895Z,63.4
2018-06-10T02:15:31.158Z,63.43
2018-06-10T02:16:31.160Z,63.36
2018-06-10T02:17:31.090Z,63.43
2018-06-10T02:18:31.200Z,63.41
2018-06-10T02:19:30.965Z,63.39
2018-06-10T02:20:31.179Z,63.41
2018-06-10T02:21:30.983Z,63.45
2018-06-10T02:22:31.118Z,63.39
2018-06-10T02:23:31.075Z,63.42
2018-06-10T02:24:31.237Z,63.5
2018-06-10T02:25:31.062Z,63.55
2018-06-10T02:26:31.014Z,63.54
2018-06-10T02:27:31.236Z,63.53
2018-06-10T02:28:30.897Z,63.54
2018-06-10T02:29:30.943Z,63.55
2018-06-10T02:30:31.151Z,63.56
2018-06-10T02:31:30.952Z,63.58
2018-06-10T02:32:31.112Z,63.56
2018-06-10T02:33:31.210Z,63.56
2018-06-10T02:34:30.956Z,63.56
2018-06-10T02:35:30.973Z,63.6
2018-06-10T02:36:30.969Z,63.58
2018-06-10T02:37:30.928Z,63.55
2018-06-10T02:38:31.039Z,63.59
2018-06-10T02:39:31.187Z,63.59
2018-06-10T02:40:30.991Z,63.57
2018-06-10T02:41:31.127Z,63.56
2018-06-10T02:42:31.254Z,63.57
2018-06-10T02:43:31.131Z,63.54
2018-06-10T02:44:30.854Z,63.6
2018-06-10T02:45:31.178Z,63.59
2018-06-10T02:46:40.997Z,63.58
2018-06-10T02:47:31.112Z,63.57
2018-06-10T02:48:31.111Z,63.59
2018-06-10T02:49:30.916Z,63.55
2018-06-10T02:50:30.904Z,63.62
2018-06-10T02:51:30.974Z,63.61
2018-06-10T02:52:31.195Z,63.61
2018-06-10T02:53:31.192Z,63.57
2018-06-10T02:54:31.206Z,63.61
2018-06-10T02:55:30.982Z,63.62
2018-06-10T02:56:30.997Z,63.68
2018-06-10T02:57:31.058Z,63.63
2018-06-10T02:58:31.011Z,63.61
2018-06-10T02:59:31.053Z,63.58
2018-06-10T03:00:31.107Z,63.58
2018-06-10T03:01:31.133Z,63.67
2018-06-10T03:02:31.471Z,63.63
2018-06-10T03:03:31.191Z,63.61
2018-06-10T03:04:31.147Z,63.62
2018-06-10T03:05:30.968Z,63.66
2018-06-10T03:06:31.092Z,63.63
2018-06-10T03:07:30.917Z,63.61
2018-06-10T03:08:30.996Z,63.6
2018-06-10T03:09:31.106Z,63.6
2018-06-10T03:10:31.224Z,63.58
2018-06-10T03:11:31.127Z,63.65
2018-06-10T03:12:31.023Z,63.63
2018-06-10T03:13:31.113Z,63.64
2018-06-10T03:14:30.943Z,63.6
2018-06-10T03:15:31.154Z,63.66
2018-06-10T03:16:31.206Z,63.66
2018-06-10T03:17:30.923Z,63.64
2018-06-10T03:18:30.963Z,63.64
2018-06-10T03:19:31.007Z,63.62
2018-06-10T03:20:31.284Z,63.61
2018-06-10T03:21:31.344Z,63.61
2018-06-10T03:22:30.989Z,63.65
2018-06-10T03:23:31.091Z,63.62
2018-06-10T03:24:31.236Z,63.63
2018-06-10T03:25:30.976Z,63.66
2018-06-10T03:26:31.553Z,63.62
2018-06-10T03:27:31.004Z,63.6
2018-06-10T03:28:31.061Z,63.66
2018-06-10T03:29:31.254Z,63.65
2018-06-10T03:30:31.018Z,63.61
2018-06-10T03:31:31.026Z,63.64
2018-06-10T03:32:31.188Z,63.65
2018-06-10T03:33:31.138Z,63.6
2018-06-10T03:34:30.959Z,63.61
2018-06-10T03:35:30.915Z,63.63
2018-06-10T03:36:31.052Z,63.57
2018-06-10T03:37:31.089Z,63.62
2018-06-10T03:38:31.029Z,63.59
2018-06-10T03:39:31.001Z,63.64
2018-06-10T03:40:30.925Z,63.67
2018-06-10T03:41:31.119Z,63.65
2018-06-10T03:42:30.852Z,63.61
2018-06-10T03:43:31.085Z,63.56
2018-06-10T03:44:30.947Z,63.61
2018-06-10T03:45:30.880Z,63.57
2018-06-10T03:46:31.077Z,63.6
2018-06-10T03:47:31.013Z,63.57
2018-06-10T03:48:30.905Z,63.65
2018-06-10T03:49:30.958Z,63.62
2018-06-10T03:50:31.386Z,63.65
2018-06-10T03:51:30.934Z,63.58
2018-06-10T03:52:31.023Z,63.59
2018-06-10T03:53:31.155Z,63.57
2018-06-10T03:54:30.963Z,63.57
2018-06-10T03:55:30.936Z,63.58
2018-06-10T03:56:31.053Z,63.59
2018-06-10T03:57:30.920Z,63.58
2018-06-10T03:58:30.884Z,63.6
2018-06-10T03:59:30.971Z,63.59
2018-06-10T04:00:30.863Z,63.57
2018-06-10T04:01:31.052Z,63.62
2018-06-10T04:02:30.895Z,63.6
2018-06-10T04:03:30.965Z,63.59
2018-06-10T04:04:30.973Z,63.63
2018-06-10T04:05:31.138Z,63.63
2018-06-10T04:06:31.098Z,63.59
2018-06-10T04:07:31.023Z,63.61
2018-06-10T04:08:30.948Z,63.58
2018-06-10T04:09:31.027Z,63.6
2018-06-10T04:10:31.068Z,63.62
2018-06-10T04:11:31.079Z,63.63
2018-06-10T04:12:31.025Z,63.56
2018-06-10T04:13:30.877Z,63.61
2018-06-10T04:14:30.869Z,63.6
2018-06-10T04:15:31.060Z,63.6
2018-06-10T04:16:31.040Z,63.58
2018-06-10T04:17:30.903Z,63.61
2018-06-10T04:18:31.049Z,63.61
2018-06-10T04:19:30.880Z,63.6
2018-06-10T04:20:30.841Z,63.59
2018-06-10T04:21:31.303Z,63.62
2018-06-10T04:22:31.225Z,63.59
2018-06-10T04:23:30.948Z,63.64
2018-06-10T04:24:30.861Z,63.63
2018-06-10T04:25:30.920Z,63.61
2018-06-10T04:26:30.939Z,63.62
2018-06-10T04:27:31.039Z,63.61
2018-06-10T04:28:31.073Z,63.6
2018-06-10T04:29:31.067Z,63.63
2018-06-10T04:30:30.937Z,63.62
2018-06-10T04:31:30.899Z,63.61
2018-06-10T04:32:31.139Z,63.66
2018-06-10T04:33:31.022Z,63.61
2018-06-10T04:34:31.009Z,63.58
2018-06-10T04:35:31.104Z,63.59
2018-06-10T04:36:31.177Z,63.63
2018-06-10T04:37:31.262Z,63.57
2018-06-10T04:38:31.030Z,63.58
2018-06-10T04:39:31.141Z,63.58
2018-06-10T04:40:31.047Z,63.58
2018-06-10T04:41:31.007Z,63.61
2018-06-10T04:42:31.028Z,63.63
2018-06-10T04:43:31.100Z,63.6
2018-06-10T04:44:31.024Z,63.6
2018-06-10T04:45:31.015Z,63.56
2018-06-10T04:46:31.207Z,63.56
2018-06-10T04:47:31.069Z,63.54
2018-06-10T04:48:31.072Z,63.58
2018-06-10T04:49:31.011Z,63.59
2018-06-10T04:50:31.006Z,63.59
2018-06-10T04:51:30.911Z,63.56
2018-06-10T04:52:30.980Z,63.6
2018-06-10T04:53:30.870Z,63.57
2018-06-10T04:54:30.902Z,63.53
2018-06-10T04:55:30.932Z,63.57
2018-06-10T04:56:30.994Z,63.59
2018-06-10T04:57:30.836Z,63.58
2018-06-10T04:58:30.855Z,63.59
2018-06-10T04:59:30.962Z,63.59
2018-06-10T05:00:30.833Z,63.56
2018-06-10T05:01:31.205Z,63.58
2018-06-10T05:02:31.016Z,63.52
2018-06-10T05:03:31.113Z,63.57
2018-06-10T05:04:31.051Z,63.55
2018-06-10T05:05:30.985Z,63.55
2018-06-10T05:06:30.920Z,63.55
2018-06-10T05:07:30.840Z,63.55
2018-06-10T05:08:31.027Z,63.54
2018-06-10T05:09:31.036Z,63.54
2018-06-10T05:10:30.843Z,63.53
2018-06-10T05:11:30.878Z,63.54
2018-06-10T05:12:30.935Z,63.53
2018-06-10T05:13:30.885Z,63.57
2018-06-10T05:14:31.107Z,63.58
2018-06-10T05:15:30.881Z,63.58
2018-06-10T05:16:30.819Z,63.59
2018-06-10T05:17:31.177Z,63.57
2018-06-10T05:18:31.061Z,63.56
2018-06-10T05:19:30.964Z,63.6
2018-06-10T05:20:30.924Z,63.58
2018-06-10T05:21:30.957Z,63.56
2018-06-10T05:22:31.110Z,63.56
2018-06-10T05:23:30.993Z,63.6
2018-06-10T05:24:30.974Z,63.58
2018-06-10T05:25:30.819Z,63.6
2018-06-10T05:26:31.041Z,63.57
2018-06-10T05:27:31.122Z,63.56
2018-06-10T05:28:30.868Z,63.61
2018-06-10T05:29:30.988Z,63.58
2018-06-10T05:30:31.131Z,63.58
2018-06-10T05:31:31.040Z,63.56
2018-06-10T05:32:31.073Z,63.58
2018-06-10T05:33:30.952Z,63.6
2018-06-10T05:34:40.878Z,63.59
2018-06-10T05:35:31.005Z,63.61
2018-06-10T05:36:31.079Z,63.65
2018-06-10T05:37:30.843Z,63.61
2018-06-10T05:38:31.102Z,63.62
2018-06-10T05:39:30.818Z,63.59
2018-06-10T05:40:31.033Z,63.57
2018-06-10T05:41:30.931Z,63.59
2018-06-10T05:42:30.969Z,63.61
2018-06-10T05:43:31.053Z,63.59
2018-06-10T05:44:30.858Z,63.61
2018-06-10T05:45:30.900Z,63.59
2018-06-10T05:46:31.004Z,63.58
2018-06-10T05:47:30.964Z,63.58
2018-06-10T05:48:30.932Z,63.56
2018-06-10T05:49:30.933Z,63.56
2018-06-10T05:50:31.071Z,63.6
2018-06-10T05:51:31.037Z,63.61
2018-06-10T05:52:31.184Z,63.6
2018-06-10T05:53:31.044Z,63.59
2018-06-10T05:54:30.847Z,63.55
2018-06-10T05:55:30.884Z,63.55
2018-06-10T05:56:31.015Z,63.58
2018-06-10T05:57:30.953Z,63.53
2018-06-10T05:58:30.938Z,63.56
2018-06-10T05:59:30.910Z,63.59
2018-06-10T06:00:30.791Z,63.56
2018-06-10T06:01:30.977Z,63.56
2018-06-10T06:02:31.038Z,63.53
2018-06-10T06:03:30.887Z,63.53
2018-06-10T06:04:30.994Z,63.56
2018-06-10T06:05:30.889Z,63.55
2018-06-10T06:06:31.110Z,63.59
2018-06-10T06:07:30.905Z,63.57
2018-06-10T06:08:30.903Z,63.59
2018-06-10T06:09:30.831Z,63.56
2018-06-10T06:10:30.864Z,63.52
2018-06-10T06:11:30.912Z,63.53
2018-06-10T06:12:31.070Z,63.56
2018-06-10T06:13:30.936Z,63.6
2018-06-10T06:14:30.821Z,63.59
2018-06-10T06:15:31.158Z,63.59
2018-06-10T06:16:30.960Z,63.59
2018-06-10T06:17:31.115Z,63.59
2018-06-10T06:18:30.805Z,63.57
2018-06-10T06:19:30.842Z,63.56
2018-06-10T06:20:31.025Z,63.55
2018-06-10T06:21:30.917Z,63.58
2018-06-10T06:22:31.110Z,63.57
2018-06-10T06:23:30.912Z,63.56
2018-06-10T06:24:31.046Z,63.57
2018-06-10T06:25:30.954Z,63.6
2018-06-10T06:26:30.939Z,63.56
2018-06-10T06:27:30.889Z,63.59
2018-06-10T06:28:30.953Z,63.54
2018-06-10T06:29:30.797Z,63.57
2018-06-10T06:30:31.075Z,63.56
2018-06-10T06:31:30.966Z,63.56
2018-06-10T06:32:31.026Z,63.59
2018-06-10T06:33:31.215Z,63.55
2018-06-10T06:34:31.035Z,63.6
2018-06-10T06:35:31.024Z,63.56
2018-06-10T06:36:30.810Z,63.6
2018-06-10T06:37:30.915Z,63.59
2018-06-10T06:38:31.126Z,63.56
2018-06-10T06:39:30.984Z,63.6
2018-06-10T06:40:30.866Z,63.59
2018-06-10T06:41:31.049Z,63.56
2018-06-10T06:42:30.983Z,63.55
2018-06-10T06:43:30.885Z,63.53
2018-06-10T06:44:31.005Z,63.59
2018-06-10T06:45:31.002Z,63.54
2018-06-10T06:46:30.923Z,63.55
2018-06-10T06:47:30.794Z,63.59
2018-06-10T06:48:30.845Z,63.56
2018-06-10T06:49:30.925Z,63.58
2018-06-10T06:50:31.013Z,63.56
2018-06-10T06:51:30.865Z,63.59
2018-06-10T06:52:31.510Z,63.56
2018-06-10T06:53:30.892Z,63.59
2018-06-10T06:54:30.878Z,63.55
2018-06-10T06:55:31.014Z,63.56
2018-06-10T06:56:30.882Z,63.55
2018-06-10T06:57:31.071Z,63.56
2018-06-10T06:58:30.872Z,63.56
2018-06-10T06:59:30.990Z,63.6
2018-06-10T07:00:31.053Z,63.54
2018-06-10T07:01:31.079Z,63.57
2018-06-10T07:02:30.835Z,63.56
2018-06-10T07:03:31.056Z,63.59
2018-06-10T07:04:31.084Z,63.61
2018-06-10T07:05:30.842Z,63.57
2018-06-10T07:06:30.927Z,63.57
2018-06-10T07:07:30.942Z,63.55
2018-06-10T07:08:31.060Z,63.54
2018-06-10T07:09:30.910Z,63.59
2018-06-10T07:10:30.838Z,63.59
2018-06-10T07:11:30.960Z,63.57
2018-06-10T07:12:30.798Z,63.52
2018-06-10T07:13:30.995Z,63.53
2018-06-10T07:14:31.135Z,63.55
2018-06-10T07:15:30.980Z,63.56
2018-06-10T07:16:30.855Z,63.56
2018-06-10T07:17:30.851Z,63.56
2018-06-10T07:18:31.063Z,63.55
2018-06-10T07:19:31.027Z,63.58
2018-06-10T07:20:30.828Z,63.58
2018-06-10T07:21:30.954Z,63.56
2018-06-10T07:22:30.980Z,63.55
2018-06-10T07:23:31.054Z,63.56
2018-06-10T07:24:31.011Z,63.55
2018-06-10T07:25:30.863Z,63.55
2018-06-10T07:26:31.054Z,63.55
2018-06-10T07:27:30.853Z,63.58
2018-06-10T07:28:30.867Z,63.59
2018-06-10T07:29:30.900Z,63.58
2018-06-10T07:30:31.502Z,63.55
2018-06-10T07:31:30.974Z,63.57
2018-06-10T07:32:30.959Z,63.58
2018-06-10T07:33:31.383Z,63.56
2018-06-10T07:34:31.003Z,63.55
2018-06-10T07:35:31.154Z,63.56
2018-06-10T07:36:30.936Z,63.54
2018-06-10T07:37:30.959Z,63.55
2018-06-10T07:38:31.000Z,63.57
2018-06-10T07:39:31.076Z,63.55
2018-06-10T07:40:31.548Z,63.52
2018-06-10T07:41:31.094Z,63.61
2018-06-10T07:42:31.166Z,63.54
2018-06-10T07:43:30.841Z,63.58
2018-06-10T07:44:30.972Z,63.55
2018-06-10T07:45:30.977Z,63.6
2018-06-10T07:46:31.065Z,63.55
2018-06-10T07:47:30.930Z,63.58
2018-06-10T07:48:31.377Z,63.61
2018-06-10T07:49:30.770Z,63.68
2018-06-10T07:50:30.809Z,63.5
2018-06-10T07:51:30.950Z,63.66
2018-06-10T07:52:31.018Z,63.69
2018-06-10T07:53:30.805Z,63.68
2018-06-10T07:54:30.930Z,63.57
2018-06-10T07:55:30.870Z,63.54
2018-06-10T07:56:30.932Z,63.54
2018-06-10T07:57:31.061Z,63.56
2018-06-10T07:58:31.026Z,63.54
2018-06-10T07:59:30.835Z,63.57
2018-06-10T08:00:30.797Z,63.48
2018-06-10T08:01:30.890Z,63.49
2018-06-10T08:02:30.937Z,63.47
2018-06-10T08:03:30.980Z,63.45
2018-06-10T08:04:31.071Z,63.47
2018-06-10T08:05:30.926Z,63.48
2018-06-10T08:06:31.093Z,63.47
2018-06-10T08:07:31.043Z,63.49
2018-06-10T08:08:30.881Z,63.43
2018-06-10T08:09:30.866Z,63.46
2018-06-10T08:10:30.787Z,63.44
2018-06-10T08:11:30.950Z,63.49
2018-06-10T08:12:30.904Z,63.45
2018-06-10T08:13:30.856Z,63.45
2018-06-10T08:14:31.009Z,63.44
2018-06-10T08:15:31.211Z,63.43
2018-06-10T08:16:30.893Z,63.41
2018-06-10T08:17:30.890Z,63.41
2018-06-10T08:18:31.050Z,63.42
2018-06-10T08:19:31.134Z,63.41
2018-06-10T08:20:30.788Z,63.41
2018-06-10T08:21:30.897Z,63.41
2018-06-10T08:22:30.929Z,63.4
2018-06-10T08:23:31.045Z,63.36
2018-06-10T08:24:30.955Z,63.39
2018-06-10T08:25:30.948Z,63.4
2018-06-10T08:26:31.491Z,63.38
2018-06-10T08:27:31.018Z,63.39
2018-06-10T08:28:31.022Z,63.39
2018-06-10T08:29:30.855Z,63.38
2018-06-10T08:30:30.991Z,63.41
2018-06-10T08:31:30.938Z,63.38
2018-06-10T08:32:30.879Z,63.37
2018-06-10T08:33:30.844Z,63.39
2018-06-10T08:34:30.776Z,63.38
2018-06-10T08:35:31.049Z,63.38
2018-06-10T08:36:30.907Z,63.37
2018-06-10T08:37:31.077Z,63.38
2018-06-10T08:38:30.926Z,63.38
2018-06-10T08:39:30.862Z,63.79
2018-06-10T08:40:30.871Z,63.65
2018-06-10T08:41:31.080Z,64.09
2018-06-10T08:42:30.938Z,63.95
2018-06-10T08:43:31.089Z,64.04
2018-06-10T08:44:30.797Z,64.29
2018-06-10T08:45:31.007Z,64.14
2018-06-10T08:46:30.942Z,64.33
2018-06-10T08:47:30.866Z,64.46
2018-06-10T08:48:30.853Z,64.37
2018-06-10T08:49:30.911Z,64.27
2018-06-10T08:50:31.531Z,64.19
2018-06-10T08:51:30.869Z,64.2
2018-06-10T08:52:31.010Z,64.3
2018-06-10T08:53:30.899Z,64.46
2018-06-10T08:54:30.965Z,64.3
2018-06-10T08:55:30.925Z,64.31
2018-06-10T08:56:30.742Z,64.25
2018-06-10T08:57:30.935Z,64.2
2018-06-10T08:58:30.962Z,64.31
2018-06-10T08:59:30.865Z,64.13
2018-06-10T09:00:31.040Z,64.18
2018-06-10T09:01:30.887Z,64.26
2018-06-10T09:02:30.910Z,64.27
2018-06-10T09:03:30.850Z,64.29
2018-06-10T09:04:30.945Z,64.24
2018-06-10T09:05:30.851Z,64.26
2018-06-10T09:06:30.886Z,64.2
2018-06-10T09:07:30.921Z,64.34
2018-06-10T09:08:31.273Z,64.35
2018-06-10T09:09:30.900Z,64.26
2018-06-10T09:10:30.898Z,64.25
2018-06-10T09:11:31.007Z,64.32
2018-06-10T09:12:30.750Z,64.21
2018-06-10T09:13:30.859Z,65.34
2018-06-10T09:14:30.799Z,64.87
2018-06-10T09:15:30.909Z,64.46
2018-06-10T09:16:30.939Z,64.53
2018-06-10T09:17:31.085Z,64.71
2018-06-10T09:18:31.307Z,64.67
2018-06-10T09:19:30.926Z,65.12
2018-06-10T09:20:30.900Z,65.13
2018-06-10T09:21:31.000Z,64.94
2018-06-10T09:22:30.962Z,64.91
2018-06-10T09:23:30.950Z,64.99
2018-06-10T09:24:30.887Z,64.9
2018-06-10T09:25:30.795Z,64.88
2018-06-10T09:26:31.014Z,64.82
2018-06-10T09:27:31.066Z,64.86
2018-06-10T09:28:31.112Z,64.79
2018-06-10T09:29:31.004Z,64.78
2018-06-10T09:30:31.017Z,64.61
2018-06-10T09:31:30.928Z,64.69
2018-06-10T09:32:30.861Z,64.66
2018-06-10T09:33:31.039Z,64.61
2018-06-10T09:34:30.815Z,64.88
2018-06-10T09:35:31.473Z,64.65
2018-06-10T09:36:31.003Z,64.62
2018-06-10T09:37:30.976Z,64.72
2018-06-10T09:38:30.886Z,64.62
2018-06-10T09:39:30.984Z,64.67
2018-06-10T09:40:30.915Z,64.65
2018-06-10T09:41:30.781Z,64.91
2018-06-10T09:42:30.792Z,64.71
2018-06-10T09:43:30.775Z,64.46
2018-06-10T09:44:31.012Z,64.78
2018-06-10T09:45:30.987Z,65.07
2018-06-10T09:46:30.915Z,65.21
2018-06-10T09:47:30.953Z,64.92
2018-06-10T09:48:30.823Z,64.95
2018-06-10T09:49:30.804Z,64.74
2018-06-10T09:50:30.767Z,64.96
2018-06-10T09:51:31.126Z,64.95
2018-06-10T09:52:30.998Z,64.9
2018-06-10T09:53:30.838Z,64.84
2018-06-10T09:54:30.792Z,64.76
2018-06-10T09:55:33.273Z,64.71
2018-06-10T09:56:30.882Z,64.72
2018-06-10T09:57:30.763Z,64.65
2018-06-10T09:58:30.952Z,64.56
2018-06-10T09:59:31.096Z,64.51
2018-06-10T10:00:31.216Z,64.44
2018-06-10T10:01:30.796Z,64.53
2018-06-10T10:02:30.819Z,64.53
2018-06-10T10:03:31.139Z,64.46
2018-06-10T10:04:31.093Z,64.44
2018-06-10T10:05:30.920Z,64.5
2018-06-10T10:06:31.031Z,64.44
2018-06-10T10:07:31.088Z,64.43
2018-06-10T10:08:30.840Z,64.42
2018-06-10T10:09:31.056Z,64.41
2018-06-10T10:10:30.770Z,64.31
2018-06-10T10:11:30.968Z,64.33
2018-06-10T10:12:30.907Z,64.33
2018-06-10T10:13:30.835Z,64.3
2018-06-10T10:14:31.548Z,64.39
2018-06-10T10:15:30.946Z,64.32
2018-06-10T10:16:30.965Z,64.25
2018-06-10T10:17:31.016Z,64.23
2018-06-10T10:18:30.864Z,64.27
2018-06-10T10:19:30.783Z,64.31
2018-06-10T10:20:30.836Z,64.54
2018-06-10T10:21:30.733Z,64.38
2018-06-10T10:22:30.962Z,64.32
2018-06-10T10:23:31.032Z,64.46
2018-06-10T10:24:31.019Z,64.35
2018-06-10T10:25:31.544Z,64.37
2018-06-10T10:26:30.771Z,64.26
2018-06-10T10:27:30.964Z,64.26
2018-06-10T10:28:30.772Z,64.27
2018-06-10T10:29:30.963Z,64.29
2018-06-10T10:30:30.907Z,64.29
2018-06-10T10:31:30.847Z,64.23
2018-06-10T10:32:31.003Z,64.22
2018-06-10T10:33:30.808Z,64.22
2018-06-10T10:34:30.956Z,64.27
2018-06-10T10:35:30.850Z,64.3
2018-06-10T10:36:30.993Z,64.26
2018-06-10T10:37:30.776Z,64.29
2018-06-10T10:38:31.489Z,64.27
2018-06-10T10:39:30.741Z,64.44
2018-06-10T10:40:32.877Z,64.4
2018-06-10T10:41:32.887Z,64.36
2018-06-10T10:42:32.804Z,64.4
2018-06-10T10:43:32.802Z,64.3
2018-06-10T10:44:32.752Z,64.31
2018-06-10T10:45:32.678Z,64.35
2018-06-10T10:46:32.753Z,64.43
2018-06-10T10:47:32.732Z,64.4
2018-06-10T10:48:32.739Z,64.36
2018-06-10T10:49:32.747Z,64.4
2018-06-10T10:50:32.705Z,64.46
2018-06-10T10:51:32.728Z,64.45
2018-06-10T10:52:32.746Z,64.48
2018-06-10T10:53:32.845Z,64.51
2018-06-10T10:54:32.770Z,64.64
2018-06-10T10:55:32.822Z,64.75
2018-06-10T10:57:18.687Z,64.8
2018-06-10T10:57:32.734Z,64.74
2018-06-10T10:58:32.841Z,64.75
2018-06-10T10:59:32.827Z,64.82
2018-06-10T11:00:32.902Z,64.75
2018-06-10T11:01:32.908Z,64.67
2018-06-10T11:02:32.844Z,64.79
2018-06-10T11:03:43.116Z,64.61
2018-06-10T11:04:33.029Z,64.63
2018-06-10T11:05:32.698Z,64.6
2018-06-10T11:06:32.907Z,64.63
2018-06-10T11:07:32.730Z,64.6
2018-06-10T11:08:32.722Z,64.69
2018-06-10T11:09:32.951Z,64.67
2018-06-10T11:10:32.765Z,64.63
2018-06-10T11:11:32.622Z,64.64
2018-06-10T11:12:32.908Z,64.53
2018-06-10T11:13:32.873Z,64.49
2018-06-10T11:14:32.987Z,64.56
2018-06-10T11:15:32.670Z,64.52
2018-06-10T11:16:32.828Z,64.51
2018-06-10T11:17:32.640Z,64.48
2018-06-10T11:18:32.800Z,64.46
2018-06-10T11:19:32.789Z,64.35
2018-06-10T11:20:32.850Z,64.26
2018-06-10T11:21:32.839Z,64.25
2018-06-10T11:22:32.897Z,64.65
2018-06-10T11:23:32.908Z,64.52
2018-06-10T11:24:32.759Z,64.61
2018-06-10T11:25:32.912Z,64.57
2018-06-10T11:26:32.837Z,64.48
2018-06-10T11:27:32.718Z,64.26
2018-06-10T11:28:32.875Z,64.28
2018-06-10T11:29:32.704Z,64.14
2018-06-10T11:30:32.741Z,64.24
2018-06-10T11:31:32.791Z,64.12
2018-06-10T11:32:32.888Z,64.11
2018-06-10T11:33:32.847Z,64.18
2018-06-10T11:34:33.520Z,64.14
2018-06-10T11:35:32.791Z,64.11
2018-06-10T11:36:32.979Z,64.11
2018-06-10T11:37:32.986Z,64.08
2018-06-10T11:38:32.898Z,64.05
2018-06-10T11:39:32.738Z,64.03
2018-06-10T11:40:32.618Z,64.05
2018-06-10T11:41:33.072Z,64.04
2018-06-10T11:42:33.526Z,64.06
2018-06-10T11:43:33.056Z,63.99
2018-06-10T11:44:32.892Z,63.87
2018-06-10T11:45:32.908Z,63.94
2018-06-10T11:46:32.736Z,63.92
2018-06-10T11:47:32.968Z,63.85
2018-06-10T11:48:32.738Z,63.95
2018-06-10T11:49:32.937Z,63.94
2018-06-10T11:50:32.735Z,63.86
2018-06-10T11:51:32.691Z,63.93
2018-06-10T11:52:32.880Z,63.92
2018-06-10T11:53:32.824Z,63.81
2018-06-10T11:54:32.865Z,63.89
2018-06-10T11:55:33.013Z,63.96
2018-06-10T11:56:32.946Z,63.99
2018-06-10T11:57:32.959Z,64.07
2018-06-10T11:58:32.851Z,64.13
2018-06-10T11:59:32.835Z,64.09
2018-06-10T12:00:32.793Z,64.14
2018-06-10T12:01:56.107Z,64.16
2018-06-10T12:02:32.796Z,64.17
2018-06-10T12:03:32.767Z,64.17
2018-06-10T12:04:32.851Z,64.14
2018-06-10T12:05:33.050Z,64.23
2018-06-10T12:06:33.047Z,64.24
2018-06-10T12:07:32.914Z,64.21
2018-06-10T12:08:32.800Z,64.19
2018-06-10T12:09:32.841Z,64.25
2018-06-10T12:10:33.298Z,64.26
2018-06-10T12:11:32.894Z,64.32
2018-06-10T12:12:32.896Z,64.23
2018-06-10T12:13:32.909Z,64.27
2018-06-10T12:14:32.752Z,64.17
2018-06-10T12:15:32.911Z,64.23
2018-06-10T12:16:33.301Z,64.44
2018-06-10T12:17:33.191Z,64.66
2018-06-10T12:18:32.969Z,64.91
2018-06-10T12:19:32.848Z,64.75
2018-06-10T12:20:32.962Z,64.8
2018-06-10T12:21:32.986Z,65.82
2018-06-10T12:22:33.515Z,64.91
2018-06-10T12:23:32.894Z,65.01
2018-06-10T12:24:32.833Z,65.04
2018-06-10T12:25:32.962Z,64.8
2018-06-10T12:26:32.923Z,64.92
2018-06-10T12:27:32.899Z,64.89
2018-06-10T12:28:32.777Z,64.56
2018-06-10T12:29:32.919Z,64.52
2018-06-10T12:30:32.749Z,64.52
2018-06-10T12:31:32.837Z,64.37
2018-06-10T12:32:32.916Z,64.45
2018-06-10T12:33:32.739Z,64.35
2018-06-10T12:34:33.263Z,64.53
2018-06-10T12:35:33.009Z,64.51
2018-06-10T12:36:32.871Z,64.48
2018-06-10T12:37:32.745Z,64.65
2018-06-10T12:38:33.017Z,64.77
2018-06-10T12:39:33.029Z,64.63
2018-06-10T12:40:32.821Z,64.51
2018-06-10T12:41:32.942Z,64.52
2018-06-10T12:42:32.856Z,64.37
2018-06-10T12:43:32.852Z,64.39
2018-06-10T12:44:32.890Z,64.51
2018-06-10T12:45:32.937Z,64.43
2018-06-10T12:46:32.654Z,64.44
2018-06-10T12:47:32.864Z,64.33
2018-06-10T12:48:32.914Z,64.56
2018-06-10T12:49:33.050Z,64.42
2018-06-10T12:50:32.756Z,64.45
2018-06-10T12:51:32.970Z,64.6
2018-06-10T12:52:32.850Z,64.65
2018-06-10T12:53:32.788Z,64.92
2018-06-10T12:54:32.910Z,64.57
2018-06-10T12:55:32.730Z,64.32